createdAt,value
2023-02-07T00:00:36.819Z,1033.87
2023-02-07T00:01:36.944Z,1033.85
2023-02-07T00:02:36.790Z,1033.81
2023-02-07T00:03:36.798Z,1033.82
2023-02-07T06:58:00.310Z,1034.05
2023-02-07T06:59:00.262Z,1034.03
2023-02-07T07:00:00.243Z,1034.03
2023-02-07T07:01:00.239Z,1034.00
2023-02-07T07:02:00.404Z,1034.05
2023-02-07T07:03:00.346Z,1034.05
2023-02-07T07:04:00.193Z,1034.08
2023-02-07T07:05:00.193Z,1034.05
2023-02-07T07:06:00.182Z,1034.01
2023-02-07T07:07:00.170Z,1034.00
2023-02-07T07:08:00.156Z,1033.99
2023-02-07T07:09:00.136Z,1033.97
2023-02-07T07:10:00.188Z,1033.97
2023-02-07T07:11:00.173Z,1033.89
2023-02-07T07:12:00.117Z,1033.92
2023-02-07T07:13:00.108Z,1033.91
2023-02-07T07:14:00.121Z,1033.91
2023-02-07T07:15:00.111Z,1033.96
2023-02-07T07:16:00.138Z,1033.99
2023-02-07T07:17:00.052Z,1034.01
2023-02-07T07:18:00.049Z,1034.04
2023-02-07T07:19:00.041Z,1034.04
2023-02-07T07:20:00.044Z,1034.10
2023-02-07T07:21:00.028Z,1034.08
2023-02-07T07:21:59.994Z,1034.12
2023-02-07T07:22:59.990Z,1034.12
2023-02-07T07:23:59.969Z,1034.17
2023-02-07T07:24:59.982Z,1034.14
2023-02-07T07:25:59.979Z,1034.20
2023-02-07T07:26:59.954Z,1034.22
2023-02-07T07:27:59.977Z,1034.29
2023-02-07T07:28:59.918Z,1034.27
2023-02-07T07:29:59.926Z,1034.33
2023-02-07T07:31:00.023Z,1034.32
2023-02-07T07:31:59.906Z,1034.33
2023-02-07T07:32:59.886Z,1034.30
2023-02-07T07:33:59.874Z,1034.29
2023-02-07T07:34:59.850Z,1034.27
2023-02-07T07:35:59.844Z,1034.33
2023-02-07T07:36:59.844Z,1034.28
2023-02-07T07:37:59.826Z,1034.29
2023-02-07T07:38:59.818Z,1034.28
2023-02-07T07:39:59.806Z,1034.28
2023-02-07T07:40:59.796Z,1034.28
2023-02-07T07:41:59.782Z,1034.21
2023-02-07T07:42:59.771Z,1034.23
2023-02-07T07:43:59.742Z,1034.21
2023-02-07T07:44:59.750Z,1034.23
2023-02-07T07:45:59.739Z,1034.18
2023-02-07T07:46:59.737Z,1034.20
2023-02-07T07:47:59.790Z,1034.20
2023-02-07T07:48:59.691Z,1034.18
2023-02-07T07:49:59.676Z,1034.21
2023-02-07T07:50:59.678Z,1034.20
2023-02-07T07:51:59.665Z,1034.22
2023-02-07T07:52:59.644Z,1034.25
2023-02-07T07:53:59.628Z,1034.30
2023-02-07T07:54:59.633Z,1034.29
2023-02-07T07:55:59.617Z,1034.30
2023-02-07T07:56:59.628Z,1034.30
2023-02-07T07:57:59.586Z,1034.33
2023-02-07T07:59:03.388Z,1034.37
2023-02-07T08:00:00.588Z,1034.36
2023-02-07T08:00:59.635Z,1034.38
2023-02-07T08:01:59.602Z,1034.36
2023-02-07T08:02:59.533Z,1034.38
2023-02-07T08:03:59.534Z,1034.35
2023-02-07T08:04:59.513Z,1034.44
2023-02-07T08:05:59.498Z,1034.44
2023-02-07T08:06:59.512Z,1034.45
2023-02-07T08:07:59.473Z,1034.45
2023-02-07T08:08:59.481Z,1034.45
2023-02-07T08:09:59.451Z,1034.47
2023-02-07T08:10:59.439Z,1034.49
2023-02-07T08:11:59.448Z,1034.53
2023-02-07T08:12:59.432Z,1034.57
2023-02-07T08:13:59.399Z,1034.62
2023-02-07T08:14:59.404Z,1034.59
2023-02-07T08:15:59.427Z,1034.59
2023-02-07T08:16:59.403Z,1034.63
2023-02-07T08:17:59.482Z,1034.62
2023-02-07T08:18:59.368Z,1034.65
2023-02-07T08:19:59.350Z,1034.60
2023-02-07T08:20:59.326Z,1034.55
2023-02-07T08:21:59.347Z,1034.57
2023-02-07T08:22:59.326Z,1034.51
2023-02-07T08:23:59.302Z,1034.55
2023-02-07T08:24:59.300Z,1034.54
2023-02-07T08:25:59.269Z,1034.51
2023-02-07T08:26:59.288Z,1034.50
2023-02-07T08:27:59.308Z,1034.47
2023-02-07T08:28:59.253Z,1034.48
2023-02-07T08:29:59.226Z,1034.44
2023-02-07T08:30:59.283Z,1034.42
2023-02-07T08:31:59.232Z,1034.43
2023-02-07T08:32:59.207Z,1034.47
2023-02-07T08:33:59.205Z,1034.47
2023-02-07T08:34:59.171Z,1034.49
2023-02-07T08:35:59.194Z,1034.54
2023-02-07T08:36:59.180Z,1034.59
2023-02-07T08:37:59.133Z,1034.61
2023-02-07T08:38:59.131Z,1034.61
2023-02-07T08:39:59.111Z,1034.58
2023-02-07T08:40:59.103Z,1034.63
2023-02-07T08:41:59.110Z,1034.61
2023-02-07T08:42:59.093Z,1034.64
2023-02-07T08:43:59.064Z,1034.59
2023-02-07T08:44:59.078Z,1034.61
2023-02-07T08:45:59.186Z,1034.59
2023-02-07T08:46:59.063Z,1034.54
2023-02-07T08:47:59.020Z,1034.58
2023-02-07T08:48:59.012Z,1034.52
2023-02-07T08:49:59.017Z,1034.59
2023-02-07T08:50:58.993Z,1034.57
2023-02-07T08:51:59.004Z,1034.61
2023-02-07T08:52:58.980Z,1034.58
2023-02-07T08:53:58.986Z,1034.57
2023-02-07T08:54:58.966Z,1034.56
2023-02-07T08:55:58.941Z,1034.52
2023-02-07T08:56:58.955Z,1034.52
2023-02-07T08:57:58.935Z,1034.50
2023-02-07T08:58:58.916Z,1034.46
2023-02-07T08:59:58.889Z,1034.45
2023-02-07T09:00:58.977Z,1034.43
2023-02-07T09:01:58.914Z,1034.43
2023-02-07T09:02:58.866Z,1034.46
2023-02-07T09:03:58.870Z,1034.41
2023-02-07T09:04:58.846Z,1034.40
2023-02-07T09:05:58.844Z,1034.41
2023-02-07T09:06:58.824Z,1034.40
2023-02-07T09:07:58.810Z,1034.44
2023-02-07T09:08:58.788Z,1034.40
2023-02-07T09:09:58.771Z,1034.39
2023-02-07T09:10:58.823Z,1034.36
2023-02-07T09:11:58.764Z,1034.44
2023-02-07T09:12:58.770Z,1034.39
2023-02-07T09:13:58.738Z,1034.41
2023-02-07T09:14:58.723Z,1034.43
2023-02-07T09:15:58.704Z,1034.41
2023-02-07T09:16:58.745Z,1034.39
2023-02-07T09:17:58.699Z,1034.37
2023-02-07T09:18:58.688Z,1034.39
2023-02-07T09:19:58.672Z,1034.35
2023-02-07T09:20:58.670Z,1034.32
2023-02-07T09:21:58.684Z,1034.33
2023-02-07T09:22:58.631Z,1034.31
2023-02-07T09:23:58.617Z,1034.35
2023-02-07T09:24:58.630Z,1034.36
2023-02-07T09:25:58.605Z,1034.29
2023-02-07T09:26:58.612Z,1034.27
2023-02-07T09:27:58.601Z,1034.27
2023-02-07T09:28:58.578Z,1034.25
2023-02-07T09:29:58.549Z,1034.28
2023-02-07T09:30:58.673Z,1034.27
2023-02-07T09:31:58.608Z,1034.24
2023-02-07T09:32:58.535Z,1034.23
2023-02-07T09:33:58.503Z,1034.16
2023-02-07T09:34:58.509Z,1034.12
2023-02-07T09:35:58.504Z,1034.15
2023-02-07T09:36:58.493Z,1034.13
2023-02-07T09:37:58.494Z,1034.17
2023-02-07T09:38:58.472Z,1034.14
2023-02-07T09:39:58.436Z,1034.14
2023-02-07T09:40:58.437Z,1034.15
2023-02-07T09:41:58.437Z,1034.08
2023-02-07T09:42:58.750Z,1034.08
2023-02-07T09:43:58.639Z,1034.03
2023-02-07T09:44:58.722Z,1034.02
2023-02-07T09:45:58.404Z,1034.00
2023-02-07T09:46:58.391Z,1034.03
2023-02-07T09:47:58.365Z,1034.00
2023-02-07T09:48:58.354Z,1034.01
2023-02-07T09:49:58.340Z,1033.98
2023-02-07T09:50:58.332Z,1034.00
2023-02-07T09:51:58.324Z,1034.05
2023-02-07T09:52:58.309Z,1034.06
2023-02-07T09:53:58.343Z,1034.05
2023-02-07T09:54:58.293Z,1034.07
2023-02-07T09:55:58.271Z,1034.05
2023-02-07T09:56:58.285Z,1034.08
2023-02-07T09:57:58.235Z,1034.03
2023-02-07T09:58:58.246Z,1033.93
2023-02-07T09:59:58.217Z,1033.96
2023-02-07T10:00:58.252Z,1034.00
2023-02-07T10:01:58.210Z,1034.02
2023-02-07T10:02:58.179Z,1034.00
2023-02-07T10:03:58.178Z,1033.99
2023-02-07T10:04:58.171Z,1033.98
2023-02-07T10:06:01.463Z,1033.98
2023-02-07T10:06:59.168Z,1034.01
2023-02-07T10:07:58.126Z,1033.99
2023-02-07T10:08:58.115Z,1033.99
2023-02-07T10:09:58.130Z,1034.04
2023-02-07T10:10:58.097Z,1034.08
2023-02-07T10:11:58.174Z,1034.04
2023-02-07T10:12:58.082Z,1034.06
2023-02-07T10:13:58.050Z,1034.08
2023-02-07T10:14:58.057Z,1034.08
2023-02-07T10:15:58.077Z,1034.12
2023-02-07T10:16:58.068Z,1034.17
2023-02-07T10:17:58.004Z,1034.06
2023-02-07T10:18:58.935Z,1034.04
2023-02-07T10:19:57.978Z,1034.06
2023-02-07T10:20:58.933Z,1034.16
2023-02-07T10:21:57.970Z,1034.05
2023-02-07T10:22:57.964Z,1034.08
2023-02-07T10:23:57.979Z,1034.02
2023-02-07T10:24:57.971Z,1033.99
2023-02-07T10:25:58.003Z,1034.02
2023-02-07T10:26:57.941Z,1034.04
2023-02-07T10:27:57.972Z,1034.07
2023-02-07T10:28:57.902Z,1034.07
2023-02-07T10:29:57.882Z,1034.04
2023-02-07T10:30:57.981Z,1034.05
2023-02-07T10:31:57.872Z,1034.09
2023-02-07T10:32:57.867Z,1034.07
2023-02-07T10:33:57.821Z,1034.09
2023-02-07T10:34:57.813Z,1034.06
2023-02-07T10:35:57.810Z,1034.01
2023-02-07T10:36:57.799Z,1034.00
2023-02-07T10:37:57.778Z,1033.98
2023-02-07T10:39:08.621Z,1033.97
2023-02-07T10:39:58.779Z,1033.97
2023-02-07T10:40:57.755Z,1033.94
2023-02-07T10:41:57.786Z,1034.00
2023-02-07T10:42:57.765Z,1033.98
2023-02-07T10:43:57.728Z,1033.98
2023-02-07T10:44:57.706Z,1034.00
2023-02-07T10:46:04.613Z,1033.98
2023-02-07T10:46:58.692Z,1033.96
2023-02-07T10:47:57.665Z,1033.97
2023-02-07T10:48:57.700Z,1033.95
2023-02-07T10:49:57.647Z,1033.95
2023-02-07T10:50:57.642Z,1033.96
2023-02-07T10:51:57.637Z,1033.98
2023-02-07T10:52:57.615Z,1033.97
2023-02-07T10:53:58.776Z,1033.97
2023-02-07T10:54:57.600Z,1034.02
2023-02-07T10:55:57.575Z,1034.05
2023-02-07T10:57:01.652Z,1034.03
2023-02-07T10:58:08.560Z,1034.07
2023-02-07T10:58:58.581Z,1034.13
2023-02-07T10:59:57.534Z,1034.11
2023-02-07T11:00:57.515Z,1034.10
2023-02-07T11:01:57.602Z,1034.11
2023-02-07T11:02:57.534Z,1034.11
2023-02-07T11:03:57.521Z,1034.09
2023-02-07T11:04:57.496Z,1034.06
2023-02-07T11:05:57.460Z,1034.07
2023-02-07T11:06:57.468Z,1034.07
2023-02-07T11:07:57.461Z,1034.07
2023-02-07T11:08:57.441Z,1034.05
2023-02-07T11:09:57.444Z,1034.04
2023-02-07T11:10:57.445Z,1034.06
2023-02-07T11:11:57.414Z,1034.04
2023-02-07T11:12:57.400Z,1034.04
2023-02-07T11:13:57.408Z,1034.05
2023-02-07T11:14:57.371Z,1034.08
2023-02-07T11:15:57.410Z,1034.04
2023-02-07T11:16:57.372Z,1034.07
2023-02-07T11:17:57.445Z,1034.03
2023-02-07T11:18:57.337Z,1034.03
2023-02-07T11:19:57.340Z,1034.07
2023-02-07T11:20:57.325Z,1034.09
2023-02-07T11:21:57.318Z,1034.06
2023-02-07T11:22:57.298Z,1034.06
2023-02-07T11:23:57.276Z,1034.03
2023-02-07T11:24:57.264Z,1034.00
2023-02-07T11:25:57.261Z,1033.99
2023-02-07T11:26:57.256Z,1033.96
2023-02-07T11:27:57.263Z,1033.98
2023-02-07T11:28:57.195Z,1033.96
2023-02-07T11:29:57.228Z,1033.98
2023-02-07T11:30:57.258Z,1033.98
2023-02-07T11:31:57.177Z,1033.99
2023-02-07T11:32:57.154Z,1034.00
2023-02-07T11:33:57.144Z,1033.98
2023-02-07T11:34:57.202Z,1033.89
2023-02-07T11:35:57.158Z,1033.92
2023-02-07T11:36:57.123Z,1033.88
2023-02-07T11:37:57.118Z,1033.87
2023-02-07T11:38:57.105Z,1033.84
2023-02-07T11:39:57.091Z,1033.87
2023-02-07T11:40:57.062Z,1033.86
2023-02-07T11:41:57.079Z,1033.85
2023-02-07T11:42:57.054Z,1033.81
2023-02-07T11:43:57.031Z,1033.85
2023-02-07T11:44:57.041Z,1033.80
2023-02-07T11:45:59.258Z,1033.79
2023-02-07T11:46:57.006Z,1033.80
2023-02-07T11:47:56.987Z,1033.78
2023-02-07T11:48:56.998Z,1033.81
2023-02-07T11:49:56.964Z,1033.80
2023-02-07T11:50:56.943Z,1033.80
2023-02-07T11:51:56.981Z,1033.82
2023-02-07T11:52:56.925Z,1033.77
2023-02-07T11:53:56.938Z,1033.79
2023-02-07T11:54:56.912Z,1033.79
2023-02-07T11:55:56.918Z,1033.79
2023-02-07T11:56:56.914Z,1033.73
2023-02-07T11:57:56.887Z,1033.75
2023-02-07T11:58:56.869Z,1033.70
2023-02-07T11:59:56.889Z,1033.74
2023-02-07T12:00:56.839Z,1033.65
2023-02-07T12:01:56.885Z,1033.69
2023-02-07T12:02:56.811Z,1033.64
2023-02-07T12:03:56.817Z,1033.65
2023-02-07T12:04:56.853Z,1033.65
2023-02-07T12:05:56.793Z,1033.64
2023-02-07T12:06:56.815Z,1033.64
2023-02-07T12:07:56.780Z,1033.65
2023-02-07T12:08:56.756Z,1033.68
2023-02-07T12:09:56.751Z,1033.72
2023-02-07T12:10:56.724Z,1033.73
2023-02-07T12:11:56.727Z,1033.70
2023-02-07T12:12:56.718Z,1033.70
2023-02-07T12:13:56.709Z,1033.68
2023-02-07T12:14:56.673Z,1033.69
2023-02-07T12:15:56.703Z,1033.67
2023-02-07T12:16:56.671Z,1033.68
2023-02-07T12:17:56.668Z,1033.66
2023-02-07T12:18:56.678Z,1033.69
2023-02-07T12:19:56.645Z,1033.68
2023-02-07T12:20:56.612Z,1033.65
2023-02-07T12:21:56.623Z,1033.66
2023-02-07T12:23:07.766Z,1033.63
2023-02-07T12:23:57.593Z,1033.63
2023-02-07T12:24:56.566Z,1033.68
2023-02-07T12:25:56.572Z,1033.65
2023-02-07T12:26:56.541Z,1033.66
2023-02-07T12:27:56.574Z,1033.66
2023-02-07T12:29:11.099Z,1033.56
2023-02-07T12:29:57.511Z,1033.61
2023-02-07T12:30:56.558Z,1033.58
2023-02-07T12:31:56.798Z,1033.64
2023-02-07T12:32:56.539Z,1033.58
2023-02-07T12:33:56.493Z,1033.61
2023-02-07T12:34:56.476Z,1033.58
2023-02-07T12:35:57.771Z,1033.60
2023-02-07T12:36:56.451Z,1033.63
2023-02-07T12:37:56.441Z,1033.60
2023-02-07T12:38:56.404Z,1033.63
2023-02-07T12:39:56.417Z,1033.65
2023-02-07T12:40:56.403Z,1033.62
2023-02-07T12:41:56.407Z,1033.60
2023-02-07T12:42:56.388Z,1033.57
2023-02-07T12:43:56.353Z,1033.59
2023-02-07T12:44:56.349Z,1033.59
2023-02-07T12:45:56.436Z,1033.61
2023-02-07T12:46:56.349Z,1033.62
2023-02-07T12:47:56.366Z,1033.63
2023-02-07T12:48:56.294Z,1033.51
2023-02-07T12:49:56.329Z,1033.54
2023-02-07T12:50:56.288Z,1033.46
2023-02-07T12:51:56.268Z,1033.46
2023-02-07T12:52:56.260Z,1033.48
2023-02-07T12:53:56.284Z,1033.46
2023-02-07T12:54:56.269Z,1033.41
2023-02-07T12:55:56.269Z,1033.41
2023-02-07T12:56:56.269Z,1033.33
2023-02-07T12:57:56.194Z,1033.38
2023-02-07T12:58:56.212Z,1033.41
2023-02-07T12:59:56.192Z,1033.35
2023-02-07T13:00:56.213Z,1033.35
2023-02-07T13:01:56.255Z,1033.33
2023-02-07T13:02:56.200Z,1033.29
2023-02-07T13:03:56.192Z,1033.30
2023-02-07T13:04:56.141Z,1033.27
2023-02-07T13:05:56.146Z,1033.29
2023-02-07T13:06:56.133Z,1033.29
2023-02-07T13:07:56.090Z,1033.29
2023-02-07T13:08:56.074Z,1033.31
2023-02-07T13:09:56.084Z,1033.30
2023-02-07T13:10:56.047Z,1033.28
2023-02-07T13:11:56.061Z,1033.30
2023-02-07T13:12:56.057Z,1033.26
2023-02-07T13:13:56.052Z,1033.23
2023-02-07T13:14:56.006Z,1033.24
2023-02-07T13:15:56.011Z,1033.25
2023-02-07T13:16:55.980Z,1033.27
2023-02-07T13:17:55.975Z,1033.27
2023-02-07T13:18:55.966Z,1033.29
2023-02-07T13:19:55.945Z,1033.29
2023-02-07T13:20:55.933Z,1033.23
2023-02-07T13:21:55.948Z,1033.22
2023-02-07T13:22:55.910Z,1033.15
2023-02-07T13:23:55.889Z,1033.16
2023-02-07T13:24:55.892Z,1033.18
2023-02-07T13:25:55.880Z,1033.16
2023-02-07T13:26:55.852Z,1033.08
2023-02-07T13:27:55.933Z,1033.12
2023-02-07T13:28:55.831Z,1033.12
2023-02-07T13:29:55.821Z,1033.06
2023-02-07T13:30:55.898Z,1033.06
2023-02-07T13:31:55.917Z,1033.08
2023-02-07T13:32:55.796Z,1033.07
2023-02-07T13:33:55.787Z,1033.07
2023-02-07T13:34:55.774Z,1033.03
2023-02-07T13:35:55.777Z,1033.06
2023-02-07T13:36:58.765Z,1033.07
2023-02-07T13:37:55.817Z,1033.06
2023-02-07T13:38:55.731Z,1033.06
2023-02-07T13:39:55.718Z,1033.05
2023-02-07T13:40:55.711Z,1033.04
2023-02-07T13:41:55.705Z,1033.04
2023-02-07T13:42:55.685Z,1033.03
2023-02-07T13:44:08.070Z,1033.05
2023-02-07T13:44:56.649Z,1033.00
2023-02-07T13:45:55.683Z,1033.06
2023-02-07T13:46:55.664Z,1033.05
2023-02-07T13:47:55.645Z,1033.04
2023-02-07T13:48:55.609Z,1033.11
2023-02-07T13:49:55.624Z,1033.04
2023-02-07T13:50:55.590Z,1033.07
2023-02-07T13:51:55.603Z,1033.07
2023-02-07T13:52:55.573Z,1033.07
2023-02-07T13:53:55.598Z,1033.07
2023-02-07T13:54:55.555Z,1033.05
2023-02-07T13:55:55.550Z,1033.08
2023-02-07T13:56:55.516Z,1033.04
2023-02-07T13:57:55.529Z,1033.02
2023-02-07T13:58:55.509Z,1033.01
2023-02-07T13:59:55.485Z,1032.95
2023-02-07T14:00:55.543Z,1032.98
2023-02-07T14:01:55.484Z,1033.01
2023-02-07T14:02:55.461Z,1033.02
2023-02-07T14:03:55.440Z,1033.04
2023-02-07T14:04:55.433Z,1033.02
2023-02-07T14:05:55.436Z,1033.06
2023-02-07T14:06:55.404Z,1033.10
2023-02-07T14:07:55.419Z,1033.06
2023-02-07T14:08:55.688Z,1033.09
2023-02-07T14:09:55.398Z,1033.09
2023-02-07T14:10:55.357Z,1033.05
2023-02-07T14:11:55.349Z,1033.04
2023-02-07T14:12:55.340Z,1033.05
2023-02-07T14:13:55.402Z,1033.07
2023-02-07T14:15:02.745Z,1033.07
2023-02-07T14:15:56.412Z,1033.07
2023-02-07T14:16:55.324Z,1033.05
2023-02-07T14:17:55.293Z,1033.05
2023-02-07T14:18:55.284Z,1033.04
2023-02-07T14:19:55.272Z,1033.04
2023-02-07T14:20:55.257Z,1033.05
2023-02-07T14:21:55.244Z,1033.06
2023-02-07T14:22:55.224Z,1033.07
2023-02-07T14:23:55.242Z,1033.07
2023-02-07T14:24:55.211Z,1033.10
2023-02-07T14:25:55.225Z,1033.06
2023-02-07T14:26:55.192Z,1033.05
2023-02-07T14:27:55.193Z,1033.07
2023-02-07T14:28:55.168Z,1033.07
2023-02-07T14:29:55.159Z,1033.06
2023-02-07T14:30:55.316Z,1033.09
2023-02-07T14:31:55.242Z,1033.11
2023-02-07T14:32:55.102Z,1033.08
2023-02-07T14:33:55.135Z,1033.10
2023-02-07T14:34:55.084Z,1033.05
2023-02-07T14:35:55.095Z,1033.04
2023-02-07T14:36:55.082Z,1033.04
2023-02-07T14:37:55.055Z,1033.00
2023-02-07T14:38:55.055Z,1033.00
2023-02-07T14:39:55.027Z,1033.02
2023-02-07T14:41:08.543Z,1032.98
2023-02-07T14:41:56.041Z,1032.97
2023-02-07T14:42:54.992Z,1033.00
2023-02-07T14:44:08.087Z,1032.95
2023-02-07T14:44:55.980Z,1032.95
2023-02-07T14:45:55.137Z,1032.98
2023-02-07T14:46:55.042Z,1032.96
2023-02-07T14:47:54.955Z,1032.95
2023-02-07T14:48:54.936Z,1032.96
2023-02-07T14:49:54.954Z,1033.02
2023-02-07T14:50:54.933Z,1033.02
2023-02-07T14:51:54.935Z,1032.99
2023-02-07T14:52:54.908Z,1032.95
2023-02-07T14:53:54.886Z,1032.93
2023-02-07T14:54:54.870Z,1032.94
2023-02-07T14:55:54.855Z,1032.98
2023-02-07T14:56:54.875Z,1032.98
2023-02-07T14:57:54.864Z,1032.96
2023-02-07T14:58:54.840Z,1032.96
2023-02-07T14:59:54.850Z,1032.97
2023-02-07T15:00:54.791Z,1032.99
2023-02-07T15:01:54.799Z,1032.99
2023-02-07T15:02:54.964Z,1033.02
2023-02-07T15:03:54.754Z,1033.00
2023-02-07T15:04:54.758Z,1032.98
2023-02-07T15:05:54.762Z,1032.98
2023-02-07T15:06:54.733Z,1032.94
2023-02-07T15:07:54.712Z,1032.94
2023-02-07T15:08:54.706Z,1032.91
2023-02-07T15:09:54.700Z,1032.88
2023-02-07T15:10:54.745Z,1032.87
2023-02-07T15:12:03.590Z,1032.88
2023-02-07T15:12:55.657Z,1032.91
2023-02-07T15:13:54.669Z,1032.91
2023-02-07T15:14:54.647Z,1032.88
2023-02-07T15:15:54.697Z,1032.90
2023-02-07T15:16:54.630Z,1032.86
2023-02-07T15:17:54.611Z,1032.91
2023-02-07T15:18:54.589Z,1032.90
2023-02-07T15:19:54.703Z,1032.87
2023-02-07T15:20:56.281Z,1032.84
2023-02-07T15:21:54.561Z,1032.84
2023-02-07T15:22:54.544Z,1032.91
2023-02-07T15:23:54.526Z,1032.92
2023-02-07T15:24:54.534Z,1032.94
2023-02-07T15:25:54.530Z,1032.95
2023-02-07T15:26:55.874Z,1032.94
2023-02-07T15:27:54.626Z,1032.95
2023-02-07T15:28:54.482Z,1032.96
2023-02-07T15:29:54.499Z,1032.93
2023-02-07T15:30:54.559Z,1032.92
2023-02-07T15:31:54.569Z,1032.94
2023-02-07T15:32:54.476Z,1032.93
2023-02-07T15:33:54.423Z,1032.95
2023-02-07T15:34:56.222Z,1032.98
2023-02-07T15:35:54.387Z,1032.95
2023-02-07T15:36:54.529Z,1032.97
2023-02-07T15:37:54.365Z,1033.00
2023-02-07T15:38:54.372Z,1032.98
2023-02-07T15:39:54.363Z,1032.98
2023-02-07T15:40:54.346Z,1032.98
2023-02-07T15:41:54.358Z,1032.97
2023-02-07T15:42:54.393Z,1032.99
2023-02-07T15:43:54.294Z,1032.98
2023-02-07T15:44:54.311Z,1032.96
2023-02-07T15:45:54.306Z,1032.91
2023-02-07T15:46:54.359Z,1032.91
2023-02-07T15:47:54.283Z,1032.95
2023-02-07T15:48:54.266Z,1032.94
2023-02-07T15:49:54.240Z,1032.93
2023-02-07T15:50:54.224Z,1032.94
2023-02-07T15:51:54.221Z,1032.98
2023-02-07T15:52:54.260Z,1032.92
2023-02-07T15:53:54.184Z,1032.86
2023-02-07T15:54:54.188Z,1032.89
2023-02-07T15:55:54.180Z,1032.90
2023-02-07T15:56:54.166Z,1032.90
2023-02-07T15:57:54.170Z,1032.89
2023-02-07T15:58:54.129Z,1032.89
2023-02-07T15:59:54.204Z,1032.89
2023-02-07T16:00:54.180Z,1032.88
2023-02-07T16:01:54.187Z,1032.88
2023-02-07T16:02:54.233Z,1032.87
2023-02-07T16:03:54.125Z,1032.89
2023-02-07T16:04:54.116Z,1032.90
2023-02-07T16:05:54.114Z,1032.87
2023-02-07T16:06:54.112Z,1032.86
2023-02-07T16:07:54.166Z,1032.88
2023-02-07T16:08:54.155Z,1032.90
2023-02-07T16:09:54.066Z,1032.91
2023-02-07T16:10:54.020Z,1032.90
2023-02-07T16:11:54.054Z,1032.88
2023-02-07T16:12:54.071Z,1032.94
2023-02-07T16:13:54.012Z,1032.96
2023-02-07T16:14:54.002Z,1032.94
2023-02-07T16:15:54.072Z,1032.93
2023-02-07T16:16:54.024Z,1032.93
2023-02-07T16:17:54.036Z,1032.93
2023-02-07T16:18:54.019Z,1032.90
2023-02-07T16:19:53.957Z,1032.94
2023-02-07T16:20:53.952Z,1032.88
2023-02-07T16:21:53.904Z,1033.00
2023-02-07T16:22:53.932Z,1033.00
2023-02-07T16:23:54.010Z,1033.01
2023-02-07T16:24:53.935Z,1033.03
2023-02-07T16:25:53.865Z,1033.03
2023-02-07T16:26:53.851Z,1033.05
2023-02-07T16:27:53.940Z,1033.05
2023-02-07T16:28:53.953Z,1033.07
2023-02-07T16:29:53.863Z,1033.03
2023-02-07T16:30:53.890Z,1033.00
2023-02-07T16:31:53.915Z,1032.99
2023-02-07T16:32:53.824Z,1032.98
2023-02-07T16:33:53.816Z,1033.05
2023-02-07T16:34:59.723Z,1033.04
2023-02-07T16:35:54.753Z,1033.04
2023-02-07T16:36:53.773Z,1033.05
2023-02-07T16:37:53.710Z,1033.03
2023-02-07T16:38:53.764Z,1033.05
2023-02-07T16:39:53.838Z,1033.02
2023-02-07T16:40:54.575Z,1033.01
2023-02-07T16:41:53.731Z,1033.06
2023-02-07T16:42:53.683Z,1033.06
2023-02-07T16:43:53.718Z,1033.09
2023-02-07T16:44:53.638Z,1033.11
2023-02-07T16:45:53.634Z,1033.12
2023-02-07T16:46:53.605Z,1033.10
2023-02-07T16:47:53.605Z,1033.15
2023-02-07T16:48:53.580Z,1033.12
2023-02-07T16:49:53.614Z,1033.11
2023-02-07T16:50:53.611Z,1033.11
2023-02-07T16:51:53.545Z,1033.12
2023-02-07T16:52:53.536Z,1033.15
2023-02-07T16:53:53.537Z,1033.17
2023-02-07T16:54:53.504Z,1033.16
2023-02-07T16:55:53.490Z,1033.14
2023-02-07T16:56:53.495Z,1033.17
2023-02-07T16:57:53.472Z,1033.14
2023-02-07T16:58:53.456Z,1033.12
2023-02-07T16:59:53.450Z,1033.13
2023-02-07T17:00:53.527Z,1033.11
2023-02-07T17:01:53.460Z,1033.11
2023-02-07T17:02:53.419Z,1033.14
2023-02-07T17:03:53.411Z,1033.12
2023-02-07T17:04:53.385Z,1033.16
2023-02-07T17:05:53.401Z,1033.17
2023-02-07T17:06:53.387Z,1033.15
2023-02-07T17:07:53.377Z,1033.20
2023-02-07T17:08:53.384Z,1033.21
2023-02-07T17:09:53.358Z,1033.20
2023-02-07T17:10:53.347Z,1033.26
2023-02-07T17:11:53.372Z,1033.25
2023-02-07T17:12:53.331Z,1033.29
2023-02-07T17:13:53.282Z,1033.30
2023-02-07T17:14:53.293Z,1033.32
2023-02-07T17:15:53.261Z,1033.32
2023-02-07T17:16:53.258Z,1033.31
2023-02-07T17:17:53.287Z,1033.34
2023-02-07T17:18:53.246Z,1033.33
2023-02-07T17:19:53.209Z,1033.36
2023-02-07T17:20:54.360Z,1033.40
2023-02-07T17:21:53.211Z,1033.39
2023-02-07T17:22:53.183Z,1033.42
2023-02-07T17:23:53.205Z,1033.41
2023-02-07T17:24:53.170Z,1033.42
2023-02-07T17:25:53.145Z,1033.42
2023-02-07T17:26:53.136Z,1033.45
2023-02-07T17:27:53.197Z,1033.48
2023-02-07T17:28:53.180Z,1033.44
2023-02-07T17:29:53.249Z,1033.46
2023-02-07T17:30:53.173Z,1033.48
2023-02-07T17:31:53.160Z,1033.46
2023-02-07T17:32:53.102Z,1033.46
2023-02-07T17:33:53.055Z,1033.46
2023-02-07T17:34:53.056Z,1033.48
2023-02-07T17:35:53.044Z,1033.46
2023-02-07T17:36:53.034Z,1033.45
2023-02-07T17:37:53.031Z,1033.47
2023-02-07T17:38:53.799Z,1033.43
2023-02-07T17:39:52.996Z,1033.47
2023-02-07T17:40:52.976Z,1033.44
2023-02-07T17:41:53.000Z,1033.47
2023-02-07T17:42:52.958Z,1033.47
2023-02-07T17:43:52.932Z,1033.49
2023-02-07T17:44:52.964Z,1033.49
2023-02-07T17:45:52.952Z,1033.52
2023-02-07T17:46:52.936Z,1033.57
2023-02-07T17:47:52.889Z,1033.57
2023-02-07T17:48:52.897Z,1033.56
2023-02-07T17:49:52.882Z,1033.58
2023-02-07T17:50:53.589Z,1033.59
2023-02-07T17:51:52.852Z,1033.57
2023-02-07T17:52:52.833Z,1033.58
2023-02-07T17:53:52.855Z,1033.55
2023-02-07T17:54:52.827Z,1033.55
2023-02-07T17:55:52.808Z,1033.56
2023-02-07T17:56:53.212Z,1033.54
2023-02-07T17:57:52.784Z,1033.51
2023-02-07T17:58:52.772Z,1033.51
2023-02-07T17:59:52.748Z,1033.53
2023-02-07T18:00:52.800Z,1033.53
2023-02-07T18:01:52.743Z,1033.51
2023-02-07T18:02:52.739Z,1033.53
2023-02-07T18:03:52.714Z,1033.53
2023-02-07T18:04:52.712Z,1033.50
2023-02-07T18:05:52.714Z,1033.45
2023-02-07T18:06:52.672Z,1033.50
2023-02-07T18:07:52.671Z,1033.47
2023-02-07T18:08:52.664Z,1033.45
2023-02-07T18:09:52.661Z,1033.48
2023-02-07T18:10:52.626Z,1033.47
2023-02-07T18:11:52.638Z,1033.45
2023-02-07T18:12:52.608Z,1033.46
2023-02-07T18:13:52.607Z,1033.45
2023-02-07T18:14:52.603Z,1033.46
2023-02-07T18:15:52.689Z,1033.44
2023-02-07T18:16:52.587Z,1033.46
2023-02-07T18:17:52.543Z,1033.43
2023-02-07T18:18:52.574Z,1033.46
2023-02-07T18:19:52.527Z,1033.44
2023-02-07T18:20:52.511Z,1033.46
2023-02-07T18:21:52.522Z,1033.43
2023-02-07T18:22:52.530Z,1033.47
2023-02-07T18:23:52.477Z,1033.44
2023-02-07T18:24:52.471Z,1033.46
2023-02-07T18:25:52.486Z,1033.51
2023-02-07T18:26:52.797Z,1033.50
2023-02-07T18:27:52.522Z,1033.48
2023-02-07T18:28:52.420Z,1033.46
2023-02-07T18:29:52.425Z,1033.49
2023-02-07T18:30:52.549Z,1033.47
2023-02-07T18:31:52.411Z,1033.50
2023-02-07T18:32:52.407Z,1033.47
2023-02-07T18:33:52.379Z,1033.47
2023-02-07T18:34:52.368Z,1033.44
2023-02-07T18:35:52.354Z,1033.45
2023-02-07T18:36:52.354Z,1033.50
2023-02-07T18:37:52.362Z,1033.51
2023-02-07T18:38:52.319Z,1033.50
2023-02-07T18:39:52.299Z,1033.49
2023-02-07T18:40:52.294Z,1033.47
2023-02-07T18:41:52.310Z,1033.47
2023-02-07T18:42:52.276Z,1033.48
2023-02-07T18:43:52.281Z,1033.48
2023-02-07T18:44:52.243Z,1033.48
2023-02-07T18:45:52.292Z,1033.45
2023-02-07T18:46:52.219Z,1033.48
2023-02-07T18:47:52.218Z,1033.49
2023-02-07T18:48:52.232Z,1033.51
2023-02-07T18:49:52.195Z,1033.47
2023-02-07T18:50:52.190Z,1033.51
2023-02-07T18:51:52.172Z,1033.54
2023-02-07T18:52:52.175Z,1033.52
2023-02-07T18:53:52.162Z,1033.55
2023-02-07T18:54:52.142Z,1033.52
2023-02-07T18:55:52.143Z,1033.51
2023-02-07T18:56:52.114Z,1033.52
2023-02-07T18:57:52.117Z,1033.51
2023-02-07T18:58:52.098Z,1033.52